createdAt,value
2019-05-10T00:00:49.769Z,83.95
2019-05-10T00:01:49.759Z,83.75
2019-05-10T00:02:49.773Z,83.85
2019-05-10T00:03:49.735Z,84.47
2019-05-10T00:04:49.724Z,83.40
2019-05-10T00:05:49.797Z,83.81
2019-05-10T00:06:49.711Z,84.12
2019-05-10T00:07:49.717Z,83.61
2019-05-10T00:08:49.680Z,84.16
2019-05-10T00:09:49.668Z,83.81
2019-05-10T00:10:49.671Z,84.06
2019-05-10T00:11:49.741Z,84.33
2019-05-10T00:12:49.633Z,84.12
2019-05-10T00:13:49.658Z,83.92
2019-05-10T00:14:49.612Z,83.92
2019-05-10T00:15:49.599Z,83.81
2019-05-10T00:16:49.594Z,83.61
2019-05-10T00:17:49.575Z,84.33
2019-05-10T00:18:49.593Z,83.61
2019-05-10T00:19:49.556Z,84.01
2019-05-10T00:20:49.551Z,84.16
2019-05-10T00:21:49.538Z,84.06
2019-05-10T00:22:49.549Z,84.22
2019-05-10T00:23:49.507Z,84.26
2019-05-10T00:25:03.183Z,83.95
2019-05-10T00:25:51.356Z,84.06
2019-05-10T00:26:49.478Z,84.06
2019-05-10T00:27:49.491Z,84.06
2019-05-10T00:28:49.453Z,84.06
2019-05-10T00:29:49.465Z,84.16
2019-05-10T00:30:49.430Z,84.26
2019-05-10T00:31:49.421Z,84.16
2019-05-10T00:32:49.436Z,84.16
2019-05-10T00:33:49.396Z,84.67
2019-05-10T00:34:49.393Z,84.16
2019-05-10T00:35:49.376Z,84.47
2019-05-10T00:36:49.362Z,84.67
2019-05-10T00:37:49.386Z,84.67
2019-05-10T00:38:49.340Z,84.77
2019-05-10T00:39:49.327Z,84.57
2019-05-10T00:40:49.316Z,84.06
2019-05-10T00:41:49.305Z,84.98
2019-05-10T00:42:49.323Z,84.47
2019-05-10T00:43:49.320Z,84.57
2019-05-10T00:44:49.278Z,84.26
2019-05-10T00:45:49.263Z,85.08
2019-05-10T00:46:49.251Z,84.47
2019-05-10T00:47:49.237Z,84.98
2019-05-10T00:48:49.256Z,84.57
2019-05-10T00:49:49.220Z,84.47
2019-05-10T00:50:49.222Z,84.16
2019-05-10T00:51:49.193Z,84.98
2019-05-10T00:52:49.185Z,84.98
2019-05-10T00:53:49.169Z,84.47
2019-05-10T00:54:49.193Z,84.67
2019-05-10T00:55:49.155Z,84.67
2019-05-10T00:56:49.137Z,84.67
2019-05-10T00:57:49.125Z,84.71
2019-05-10T00:58:49.116Z,84.36
2019-05-10T00:59:49.128Z,84.71
2019-05-10T01:00:49.093Z,84.71
2019-05-10T01:01:49.082Z,84.81
2019-05-10T01:02:49.067Z,84.47
2019-05-10T01:03:49.060Z,84.98
2019-05-10T01:04:49.078Z,84.81
2019-05-10T01:05:49.035Z,84.91
2019-05-10T01:06:49.025Z,84.71
2019-05-10T01:07:49.012Z,85.02
2019-05-10T01:08:49.001Z,85.02
2019-05-10T01:09:49.015Z,85.32
2019-05-10T01:10:48.978Z,84.81
2019-05-10T01:11:48.968Z,85.12
2019-05-10T01:12:48.955Z,85.22
2019-05-10T01:13:48.960Z,85.12
2019-05-10T01:14:48.933Z,84.61
2019-05-10T01:15:48.936Z,84.81
2019-05-10T01:16:48.910Z,84.81
2019-05-10T01:17:48.900Z,84.81
2019-05-10T01:18:48.914Z,84.71
2019-05-10T01:19:48.877Z,84.81
2019-05-10T01:20:48.867Z,85.02
2019-05-10T01:21:48.881Z,84.09
2019-05-10T01:22:48.869Z,84.61
2019-05-10T01:23:48.833Z,84.30
2019-05-10T01:24:48.820Z,84.61
2019-05-10T01:25:48.821Z,84.20
2019-05-10T01:26:48.798Z,84.71
2019-05-10T01:27:48.812Z,85.02
2019-05-10T01:28:48.825Z,84.91
2019-05-10T01:29:48.765Z,85.32
2019-05-10T01:30:48.753Z,85.02
2019-05-10T01:31:48.745Z,85.12
2019-05-10T01:32:48.735Z,84.75
2019-05-10T01:33:48.748Z,84.91
2019-05-10T01:34:48.710Z,84.75
2019-05-10T01:35:48.699Z,85.22
2019-05-10T01:36:48.685Z,84.50
2019-05-10T01:37:48.699Z,84.85
2019-05-10T01:38:48.663Z,85.02
2019-05-10T01:39:48.651Z,84.81
2019-05-10T01:40:48.640Z,84.75
2019-05-10T01:41:48.632Z,84.61
2019-05-10T01:42:48.642Z,84.65
2019-05-10T01:43:48.606Z,84.91
2019-05-10T01:44:48.601Z,85.26
2019-05-10T01:45:48.617Z,85.06
2019-05-10T01:46:48.573Z,84.75
2019-05-10T01:47:48.562Z,84.85
2019-05-10T01:48:48.581Z,85.06
2019-05-10T01:49:48.543Z,84.65
2019-05-10T01:50:48.528Z,84.65
2019-05-10T01:51:48.556Z,84.75
2019-05-10T01:52:48.532Z,84.75
2019-05-10T01:53:48.513Z,85.26
2019-05-10T01:54:48.483Z,84.75
2019-05-10T01:55:52.172Z,84.95
2019-05-10T01:56:48.461Z,84.85
2019-05-10T01:57:48.475Z,84.75
2019-05-10T01:58:48.440Z,84.71
2019-05-10T01:59:48.452Z,84.34
2019-05-10T02:00:48.420Z,84.24
2019-05-10T02:01:48.405Z,84.24
2019-05-10T02:02:48.415Z,84.14
2019-05-10T02:03:48.389Z,84.34
2019-05-10T02:04:48.382Z,83.93
2019-05-10T02:05:48.360Z,84.34
2019-05-10T02:06:48.348Z,84.44
2019-05-10T02:07:48.360Z,84.75
2019-05-10T02:08:48.346Z,84.44
2019-05-10T02:09:48.371Z,84.75
2019-05-10T02:10:48.312Z,85.26
2019-05-10T02:11:48.291Z,85.26
2019-05-10T02:12:48.280Z,84.55
2019-05-10T02:13:48.269Z,85.16
2019-05-10T02:14:48.286Z,85.36
2019-05-10T02:15:48.246Z,84.95
2019-05-10T02:16:48.237Z,84.85
2019-05-10T02:17:48.225Z,85.06
2019-05-10T02:18:48.228Z,84.55
2019-05-10T02:19:48.228Z,85.10
2019-05-10T02:20:48.191Z,84.95
2019-05-10T02:21:48.180Z,84.03
2019-05-10T02:22:48.169Z,84.75
2019-05-10T02:23:48.171Z,84.28
2019-05-10T02:24:48.144Z,84.55
2019-05-10T02:25:48.164Z,84.34
2019-05-10T02:26:48.158Z,84.24
2019-05-10T02:27:48.112Z,84.14
2019-05-10T02:28:48.099Z,84.38
2019-05-10T02:29:48.089Z,84.24
2019-05-10T02:30:48.102Z,84.14
2019-05-10T02:31:48.070Z,84.07
2019-05-10T02:32:48.057Z,83.87
2019-05-10T02:33:48.052Z,84.44
2019-05-10T02:34:48.032Z,84.38
2019-05-10T02:35:48.056Z,84.38
2019-05-10T02:36:48.017Z,83.97
2019-05-10T02:37:48.053Z,84.28
2019-05-10T02:38:47.987Z,84.48
2019-05-10T02:39:47.983Z,84.17
2019-05-10T02:40:48.003Z,84.38
2019-05-10T02:41:47.992Z,84.72
2019-05-10T02:42:47.979Z,84.42
2019-05-10T02:43:47.937Z,84.72
2019-05-10T02:44:47.921Z,84.83
2019-05-10T02:45:47.933Z,84.83
2019-05-10T02:46:47.932Z,84.77
2019-05-10T02:47:47.885Z,84.93
2019-05-10T02:48:47.880Z,85.44
2019-05-10T02:49:47.865Z,85.24
2019-05-10T02:50:47.853Z,85.55
2019-05-10T02:51:47.875Z,85.24
2019-05-10T02:52:47.830Z,85.28
2019-05-10T02:53:47.819Z,85.99
2019-05-10T02:54:47.807Z,85.69
2019-05-10T02:55:47.819Z,86.40
2019-05-10T02:56:47.783Z,86.10
2019-05-10T02:57:47.774Z,85.99
2019-05-10T02:58:47.764Z,85.64
2019-05-10T02:59:47.751Z,86.16
2019-05-10T03:00:47.767Z,85.44
2019-05-10T03:01:47.728Z,86.16
2019-05-10T03:02:47.718Z,85.34
2019-05-10T03:03:47.709Z,85.44
2019-05-10T03:04:47.719Z,86.05
2019-05-10T03:05:48.958Z,85.55
2019-05-10T03:06:47.674Z,85.96
2019-05-10T03:07:47.674Z,85.24
2019-05-10T03:08:47.650Z,85.44
2019-05-10T03:09:47.641Z,85.44
2019-05-10T03:10:47.655Z,85.44
2019-05-10T03:11:47.616Z,85.24
2019-05-10T03:12:47.605Z,85.34
2019-05-10T03:13:47.593Z,84.93
2019-05-10T03:14:47.613Z,85.03
2019-05-10T03:15:47.570Z,85.24
2019-05-10T03:16:47.562Z,85.75
2019-05-10T03:17:47.548Z,85.44
2019-05-10T03:18:47.539Z,86.16
2019-05-10T03:19:47.553Z,86.16
2019-05-10T03:20:47.514Z,85.34
2019-05-10T03:21:47.506Z,85.44
2019-05-10T03:22:47.493Z,85.24
2019-05-10T03:23:47.505Z,85.34
2019-05-10T03:24:47.467Z,85.34
2019-05-10T03:25:47.459Z,85.64
2019-05-10T03:26:50.943Z,86.16
2019-05-10T03:27:47.443Z,85.34
2019-05-10T03:28:47.450Z,85.34
2019-05-10T03:29:47.411Z,85.24
2019-05-10T03:30:47.401Z,85.55
2019-05-10T03:31:47.390Z,85.75
2019-05-10T03:32:47.465Z,85.34
2019-05-10T03:33:54.966Z,86.46
2019-05-10T03:34:48.356Z,86.26
2019-05-10T03:35:47.415Z,85.85
2019-05-10T03:36:47.365Z,86.26
2019-05-10T03:37:47.323Z,85.99
2019-05-10T03:38:47.320Z,86.16
2019-05-10T03:39:47.311Z,85.44
2019-05-10T03:40:47.289Z,86.10
2019-05-10T03:41:47.318Z,86.05
2019-05-10T03:42:47.271Z,85.28
2019-05-10T03:43:47.255Z,85.34
2019-05-10T03:44:47.265Z,85.34
2019-05-10T03:45:47.247Z,85.44
2019-05-10T03:46:47.254Z,84.63
2019-05-10T03:47:47.239Z,85.34
2019-05-10T03:48:47.197Z,85.03
2019-05-10T03:49:47.187Z,84.83
2019-05-10T03:50:47.201Z,85.30
2019-05-10T03:51:47.166Z,85.14
2019-05-10T03:52:51.719Z,85.14
2019-05-10T03:53:48.151Z,85.14
2019-05-10T03:54:47.129Z,84.93
2019-05-10T03:55:47.169Z,85.03
2019-05-10T03:56:47.109Z,85.24
2019-05-10T03:57:47.104Z,85.14
2019-05-10T03:58:47.097Z,84.72
2019-05-10T03:59:47.073Z,84.93
2019-05-10T04:00:47.078Z,84.93
2019-05-10T04:01:47.140Z,85.03
2019-05-10T04:02:47.075Z,85.03
2019-05-10T04:03:47.089Z,84.83
2019-05-10T04:04:47.048Z,84.93
2019-05-10T04:05:47.038Z,84.93
2019-05-10T04:06:47.030Z,85.34
2019-05-10T04:07:47.045Z,85.14
2019-05-10T04:08:47.016Z,85.34
2019-05-10T04:09:46.994Z,84.83
2019-05-10T04:10:46.979Z,84.31
2019-05-10T04:11:46.940Z,85.20
2019-05-10T04:12:46.957Z,85.34
2019-05-10T04:13:46.920Z,84.72
2019-05-10T04:14:46.907Z,84.63
2019-05-10T04:15:46.930Z,84.63
2019-05-10T04:16:46.883Z,84.63
2019-05-10T04:17:50.151Z,84.52
2019-05-10T04:18:46.860Z,84.52
2019-05-10T04:19:46.852Z,84.22
2019-05-10T04:20:46.842Z,84.11
2019-05-10T04:21:46.827Z,85.20
2019-05-10T04:22:46.832Z,84.83
2019-05-10T04:23:46.928Z,84.72
2019-05-10T04:24:46.807Z,85.03
2019-05-10T04:25:46.782Z,84.52
2019-05-10T04:26:46.774Z,84.31
2019-05-10T04:27:46.771Z,84.28
2019-05-10T04:28:46.769Z,84.17
2019-05-10T04:29:46.734Z,84.07
2019-05-10T04:30:46.728Z,83.97
2019-05-10T04:31:46.806Z,84.28
2019-05-10T04:32:46.718Z,84.28
2019-05-10T04:33:46.690Z,84.07
2019-05-10T04:34:46.704Z,84.48
2019-05-10T04:35:46.666Z,83.97
2019-05-10T04:36:46.655Z,83.36
2019-05-10T04:37:46.645Z,84.17
2019-05-10T04:38:46.659Z,83.62
2019-05-10T04:39:46.623Z,82.81
2019-05-10T04:40:46.613Z,82.70
2019-05-10T04:41:46.600Z,83.01
2019-05-10T04:42:46.593Z,82.81
2019-05-10T04:43:46.592Z,82.70
2019-05-10T04:44:46.569Z,82.50
2019-05-10T04:45:46.578Z,82.60
2019-05-10T04:46:46.543Z,82.50
2019-05-10T04:47:46.532Z,82.60
2019-05-10T04:48:46.592Z,82.43
2019-05-10T04:49:46.509Z,82.64
2019-05-10T04:50:49.217Z,82.13
2019-05-10T04:51:46.509Z,81.48
2019-05-10T04:52:46.480Z,82.54
2019-05-10T04:53:46.533Z,82.40
2019-05-10T04:54:46.537Z,82.40
2019-05-10T04:55:46.441Z,82.70
2019-05-10T04:56:46.432Z,82.84
2019-05-10T04:57:50.323Z,82.40
2019-05-10T04:58:46.438Z,82.34
2019-05-10T04:59:46.397Z,82.75
2019-05-10T05:00:46.400Z,82.50
2019-05-10T05:01:46.377Z,82.64
2019-05-10T05:02:46.368Z,82.34
2019-05-10T05:03:46.367Z,82.54
2019-05-10T05:04:46.378Z,82.89
2019-05-10T05:05:46.330Z,82.78
2019-05-10T05:06:46.326Z,83.50
2019-05-10T05:07:46.306Z,82.68
2019-05-10T05:08:46.297Z,83.09
2019-05-10T05:09:46.298Z,82.89
2019-05-10T05:10:46.280Z,82.68
2019-05-10T05:11:46.261Z,82.89
2019-05-10T05:12:46.279Z,82.89
2019-05-10T05:13:46.262Z,82.98
2019-05-10T05:14:46.226Z,82.78
2019-05-10T05:15:46.216Z,82.78
2019-05-10T05:16:46.205Z,83.19
2019-05-10T05:17:46.215Z,83.81
2019-05-10T05:18:46.197Z,83.39
2019-05-10T05:19:46.187Z,82.68
2019-05-10T05:20:46.158Z,82.68
2019-05-10T05:21:46.170Z,82.89
2019-05-10T05:22:46.138Z,82.57
2019-05-10T05:23:46.134Z,82.54
2019-05-10T05:24:46.115Z,82.95
2019-05-10T05:25:46.128Z,82.09
2019-05-10T05:26:46.091Z,81.88
2019-05-10T05:27:46.101Z,82.09
2019-05-10T05:28:46.069Z,82.40
2019-05-10T05:29:46.057Z,83.01
2019-05-10T05:30:46.071Z,82.26
2019-05-10T05:31:46.035Z,81.38
2019-05-10T05:32:46.024Z,81.44
2019-05-10T05:33:46.012Z,81.44
2019-05-10T05:34:46.000Z,81.34
2019-05-10T05:35:46.006Z,80.62
2019-05-10T05:36:46.001Z,81.44
2019-05-10T05:37:45.967Z,81.03
2019-05-10T05:38:46.871Z,80.52
2019-05-10T05:39:45.944Z,80.32
2019-05-10T05:40:45.960Z,80.18
2019-05-10T05:41:51.657Z,79.97
2019-05-10T05:42:46.910Z,79.36
2019-05-10T05:43:48.013Z,79.16
2019-05-10T05:44:45.889Z,78.95
2019-05-10T05:45:45.900Z,79.16
2019-05-10T05:46:45.868Z,78.75
2019-05-10T05:47:45.855Z,77.89
2019-05-10T05:48:45.876Z,78.81
2019-05-10T05:49:45.834Z,78.81
2019-05-10T05:50:45.821Z,78.50
2019-05-10T05:51:45.810Z,78.16
2019-05-10T05:52:45.821Z,77.89
2019-05-10T05:53:45.848Z,77.55
2019-05-10T05:54:45.801Z,77.89
2019-05-10T05:55:45.765Z,76.87
2019-05-10T05:56:50.846Z,78.30
2019-05-10T05:57:46.746Z,78.09
2019-05-10T05:58:47.050Z,78.00
2019-05-10T05:59:48.933Z,77.93
2019-05-10T06:00:46.760Z,78.13
2019-05-10T06:01:45.741Z,78.64
2019-05-10T06:02:46.750Z,78.64
2019-05-10T06:03:45.699Z,78.95
2019-05-10T06:04:46.222Z,78.44
2019-05-10T06:05:45.690Z,79.05
2019-05-10T06:06:45.644Z,79.25
2019-05-10T06:07:45.632Z,78.85
2019-05-10T06:08:45.622Z,78.64
2019-05-10T06:09:45.610Z,78.85
2019-05-10T06:10:56.126Z,78.78
2019-05-10T06:11:46.606Z,78.75
2019-05-10T06:12:50.672Z,79.29
2019-05-10T06:13:46.564Z,79.16
2019-05-10T06:14:49.600Z,79.05
2019-05-10T06:15:46.538Z,79.66
2019-05-10T06:16:51.494Z,79.57
2019-05-10T06:17:56.089Z,79.05
2019-05-10T06:18:47.337Z,79.05
2019-05-10T06:19:45.498Z,78.13
2019-05-10T06:20:46.990Z,78.03
2019-05-10T06:21:45.476Z,78.64
2019-05-10T06:23:05.021Z,78.44
2019-05-10T06:23:46.473Z,78.44
2019-05-10T06:24:46.894Z,78.81
2019-05-10T06:25:46.473Z,78.61
2019-05-10T06:26:45.417Z,77.89
2019-05-10T06:27:45.483Z,78.09
2019-05-10T06:28:58.577Z,78.00
2019-05-10T06:29:46.384Z,77.89
2019-05-10T06:30:45.540Z,77.96
2019-05-10T06:31:45.368Z,77.65
2019-05-10T06:32:45.346Z,77.86
2019-05-10T06:33:46.840Z,77.04
2019-05-10T06:34:45.350Z,77.00
2019-05-10T06:35:45.314Z,76.80
2019-05-10T06:36:45.307Z,75.98
2019-05-10T06:37:45.302Z,75.44
2019-05-10T06:38:45.289Z,75.88
2019-05-10T06:39:45.287Z,75.54
2019-05-10T06:40:47.641Z,75.64
2019-05-10T06:41:50.137Z,74.52
2019-05-10T06:42:46.236Z,74.83
2019-05-10T06:43:45.708Z,74.52
2019-05-10T06:44:46.236Z,73.91
2019-05-10T06:45:46.789Z,73.77
2019-05-10T06:46:46.187Z,73.97
2019-05-10T06:47:47.928Z,74.28
2019-05-10T06:48:45.191Z,73.74
2019-05-10T06:49:50.414Z,73.84
2019-05-10T06:50:46.140Z,72.86
2019-05-10T06:51:48.958Z,73.02
2019-05-10T06:52:46.144Z,73.16
2019-05-10T06:53:52.231Z,70.96
2019-05-10T06:54:46.120Z,69.68
2019-05-10T06:55:45.117Z,69.13
2019-05-10T06:56:45.077Z,69.13
2019-05-10T06:57:50.579Z,67.65
2019-05-10T06:58:46.054Z,68.66
2019-05-10T06:59:45.068Z,69.34
2019-05-10T07:00:47.356Z,64.34
2019-05-10T07:01:51.388Z,65.09
2019-05-10T07:02:46.006Z,65.84
2019-05-10T07:03:45.000Z,62.70
2019-05-10T07:04:45.001Z,63.95
2019-05-10T07:05:44.983Z,62.77
2019-05-10T07:06:44.963Z,61.33
2019-05-10T07:07:45.528Z,61.20
2019-05-10T07:08:46.037Z,60.87
2019-05-10T07:10:03.316Z,59.53
2019-05-10T07:10:45.939Z,59.28
2019-05-10T07:11:44.906Z,58.78
2019-05-10T07:12:45.386Z,59.89
2019-05-10T07:13:47.114Z,61.03
2019-05-10T07:14:46.067Z,59.71
2019-05-10T07:15:44.990Z,58.34
2019-05-10T07:16:44.852Z,59.63
2019-05-10T07:17:47.173Z,59.90
2019-05-10T07:18:44.827Z,58.80
2019-05-10T07:19:53.747Z,58.19
2019-05-10T07:20:45.832Z,57.56
2019-05-10T07:21:50.772Z,57.43
2019-05-10T07:22:45.782Z,56.49
2019-05-10T07:23:47.612Z,55.99
2019-05-10T07:24:44.761Z,56.49
2019-05-10T07:25:46.738Z,55.89
2019-05-10T07:26:44.739Z,57.24
2019-05-10T07:27:44.728Z,55.23
2019-05-10T07:28:44.715Z,55.21
2019-05-10T07:29:46.251Z,55.91
2019-05-10T07:30:44.716Z,54.91
2019-05-10T07:31:44.682Z,55.19
2019-05-10T07:32:44.670Z,55.64
2019-05-10T07:33:44.659Z,56.20
2019-05-10T07:34:48.648Z,57.74
2019-05-10T07:35:45.652Z,59.71
2019-05-10T07:36:44.640Z,60.17
2019-05-10T07:37:47.590Z,60.71
2019-05-10T07:38:45.602Z,62.08
2019-05-10T07:39:44.593Z,62.69
2019-05-10T07:40:44.581Z,63.76
2019-05-10T07:41:44.609Z,63.06
2019-05-10T07:42:45.524Z,62.88
2019-05-10T07:43:47.932Z,63.42
2019-05-10T07:44:46.713Z,62.84
2019-05-10T07:45:44.524Z,62.33
2019-05-10T07:46:46.565Z,63.24
2019-05-10T07:47:45.504Z,62.76
2019-05-10T07:48:46.965Z,63.28
2019-05-10T07:49:45.493Z,63.88
2019-05-10T07:50:49.375Z,64.39
2019-05-10T07:51:45.515Z,63.71
2019-05-10T07:52:45.719Z,63.00
2019-05-10T07:53:44.436Z,63.58
2019-05-10T07:54:45.904Z,63.78
2019-05-10T07:55:44.411Z,64.12
2019-05-10T07:56:45.563Z,65.00
2019-05-10T07:57:44.388Z,63.88
2019-05-10T07:58:44.962Z,63.20
2019-05-10T07:59:50.814Z,64.22
2019-05-10T08:00:46.785Z,63.81
2019-05-10T08:01:48.622Z,64.49
2019-05-10T08:02:49.622Z,63.60
2019-05-10T08:03:51.805Z,63.30
2019-05-10T08:04:45.308Z,63.40
2019-05-10T08:05:46.398Z,64.32
2019-05-10T08:06:47.987Z,63.60
2019-05-10T08:07:45.307Z,64.01
2019-05-10T08:08:44.266Z,65.26
2019-05-10T08:09:45.231Z,66.69
2019-05-10T08:10:44.246Z,66.08
2019-05-10T08:11:44.234Z,65.57
2019-05-10T08:12:45.735Z,66.00
2019-05-10T08:13:44.234Z,67.33
2019-05-10T08:14:49.053Z,67.22
2019-05-10T08:15:45.228Z,67.16
2019-05-10T08:16:44.175Z,67.77
2019-05-10T08:17:45.698Z,68.68
2019-05-10T08:18:44.154Z,67.36
2019-05-10T08:19:44.141Z,68.79
2019-05-10T08:20:53.625Z,68.27
2019-05-10T08:21:48.892Z,69.29
2019-05-10T08:22:46.220Z,68.62
2019-05-10T08:23:44.112Z,69.23
2019-05-10T08:24:52.105Z,68.82
2019-05-10T08:25:47.173Z,68.82
2019-05-10T08:26:44.063Z,69.53
2019-05-10T08:27:50.679Z,69.84
2019-05-10T08:28:45.045Z,70.24
2019-05-10T08:29:44.027Z,69.32
2019-05-10T08:30:51.732Z,68.71
2019-05-10T08:31:52.296Z,69.63
2019-05-10T08:32:44.998Z,69.84
2019-05-10T08:33:52.791Z,69.84
2019-05-10T08:34:52.172Z,69.84
2019-05-10T08:35:46.566Z,69.32
2019-05-10T08:36:47.633Z,69.63
2019-05-10T08:37:43.940Z,69.67
2019-05-10T08:38:46.578Z,70.28
2019-05-10T08:39:48.950Z,70.07
2019-05-10T08:40:44.906Z,70.17
2019-05-10T08:41:45.875Z,70.07
2019-05-10T08:42:48.200Z,69.76
2019-05-10T08:43:43.871Z,70.89
2019-05-10T08:44:43.861Z,70.78
2019-05-10T08:45:49.056Z,69.76
2019-05-10T08:46:44.842Z,70.07
2019-05-10T08:47:43.858Z,69.36
2019-05-10T08:48:50.363Z,70.07
2019-05-10T08:49:57.687Z,70.48
2019-05-10T08:50:53.093Z,70.17
2019-05-10T08:51:49.079Z,70.99
2019-05-10T08:52:43.791Z,71.70
2019-05-10T08:53:47.138Z,71.39
2019-05-10T08:54:44.746Z,70.58
2019-05-10T08:55:43.734Z,70.89
2019-05-10T08:56:46.823Z,71.23
2019-05-10T08:57:49.101Z,71.19
2019-05-10T08:58:44.703Z,71.12
2019-05-10T08:59:43.689Z,70.48
2019-05-10T09:00:54.230Z,70.58
2019-05-10T09:01:50.209Z,70.38
2019-05-10T09:02:44.653Z,70.78
2019-05-10T09:03:47.112Z,70.89
2019-05-10T09:04:49.938Z,70.99
2019-05-10T09:05:44.619Z,70.68
2019-05-10T09:06:47.437Z,70.86
2019-05-10T09:07:45.355Z,70.28
2019-05-10T09:08:43.614Z,70.17
2019-05-10T09:09:49.771Z,69.56
2019-05-10T09:10:44.563Z,68.95
2019-05-10T09:11:44.416Z,70.58
2019-05-10T09:12:50.868Z,70.14
2019-05-10T09:13:46.040Z,70.14
2019-05-10T09:14:43.561Z,70.48
2019-05-10T09:15:51.737Z,70.14
2019-05-10T09:16:56.246Z,69.53
2019-05-10T09:17:44.483Z,70.34
2019-05-10T09:18:50.234Z,70.65
2019-05-10T09:19:44.476Z,70.14
2019-05-10T09:20:43.469Z,68.92
2019-05-10T09:21:49.515Z,69.19
2019-05-10T09:22:44.427Z,69.49
2019-05-10T09:23:43.417Z,69.60
2019-05-10T09:24:48.671Z,68.68
2019-05-10T09:25:44.394Z,68.88
2019-05-10T09:26:46.842Z,68.58
2019-05-10T09:27:44.371Z,69.49
2019-05-10T09:28:47.706Z,69.40
2019-05-10T09:29:44.351Z,69.60
2019-05-10T09:30:56.527Z,68.27
2019-05-10T09:31:48.829Z,68.88
2019-05-10T09:32:44.314Z,68.68
2019-05-10T09:33:49.305Z,69.09
2019-05-10T09:34:44.340Z,68.99
2019-05-10T09:35:51.524Z,68.79
2019-05-10T09:36:47.015Z,69.29
2019-05-10T09:37:47.719Z,68.58
2019-05-10T09:38:46.317Z,69.29
2019-05-10T09:39:43.237Z,68.48
2019-05-10T09:40:51.160Z,70.01
2019-05-10T09:41:44.705Z,68.88
2019-05-10T09:42:43.866Z,69.19
2019-05-10T09:43:48.800Z,69.60
2019-05-10T09:44:45.979Z,68.68
2019-05-10T09:45:43.171Z,69.43
2019-05-10T09:46:43.173Z,70.51
2019-05-10T09:47:43.724Z,69.40
2019-05-10T09:48:45.091Z,69.90
2019-05-10T09:49:46.778Z,69.19
2019-05-10T09:50:47.032Z,69.90
2019-05-10T09:51:43.135Z,68.88
2019-05-10T09:52:43.090Z,68.88
2019-05-10T09:53:43.081Z,69.90
2019-05-10T09:54:43.069Z,70.51
2019-05-10T09:55:45.487Z,70.21
2019-05-10T09:56:44.998Z,69.67
2019-05-10T09:57:43.048Z,69.26
2019-05-10T09:58:43.024Z,68.85
2019-05-10T09:59:43.010Z,69.26
2019-05-10T10:00:43.001Z,69.26
2019-05-10T10:01:42.989Z,68.32
2019-05-10T10:02:47.726Z,68.65
2019-05-10T10:03:45.017Z,68.96
2019-05-10T10:04:42.988Z,69.94
2019-05-10T10:05:42.946Z,68.82
2019-05-10T10:06:48.241Z,68.21
2019-05-10T10:07:43.942Z,68.32
2019-05-10T10:08:43.542Z,69.02
2019-05-10T10:09:45.102Z,68.01
2019-05-10T10:10:42.890Z,68.52
2019-05-10T10:11:48.570Z,68.82
2019-05-10T10:12:43.891Z,68.72
2019-05-10T10:13:44.029Z,68.18
2019-05-10T10:14:43.846Z,68.69
2019-05-10T10:15:42.832Z,69.50
2019-05-10T10:16:48.855Z,69.57
2019-05-10T10:17:43.807Z,68.76
2019-05-10T10:18:42.844Z,66.90
2019-05-10T10:19:42.787Z,67.00
2019-05-10T10:20:45.001Z,67.00
2019-05-10T10:21:42.765Z,64.97
2019-05-10T10:22:43.310Z,64.87
2019-05-10T10:23:43.740Z,65.10
2019-05-10T10:24:42.737Z,66.12
2019-05-10T10:25:42.742Z,66.63
2019-05-10T10:26:42.727Z,66.49
2019-05-10T10:27:42.698Z,66.80
2019-05-10T10:28:42.685Z,67.13
2019-05-10T10:29:42.675Z,67.10
2019-05-10T10:30:42.688Z,66.72
2019-05-10T10:31:51.512Z,66.08
2019-05-10T10:32:44.609Z,64.79
2019-05-10T10:33:43.206Z,65.13
2019-05-10T10:34:43.174Z,66.96
2019-05-10T10:35:42.639Z,66.72
2019-05-10T10:36:44.104Z,66.83
2019-05-10T10:37:42.587Z,66.52
2019-05-10T10:38:45.431Z,67.41
2019-05-10T10:39:43.560Z,66.69
2019-05-10T10:40:45.075Z,66.69
2019-05-10T10:41:42.563Z,65.78
2019-05-10T10:42:42.530Z,64.46
2019-05-10T10:43:42.525Z,65.04
2019-05-10T10:44:42.510Z,65.52
2019-05-10T10:45:42.494Z,65.72
2019-05-10T10:46:42.507Z,64.98
2019-05-10T10:47:42.487Z,63.06
2019-05-10T10:48:43.748Z,63.86
2019-05-10T10:49:43.448Z,65.56
2019-05-10T10:50:44.089Z,64.14
2019-05-10T10:51:43.450Z,65.96
2019-05-10T10:52:42.415Z,65.15
2019-05-10T10:53:42.420Z,64.54
2019-05-10T10:54:42.392Z,64.04
2019-05-10T10:55:48.510Z,62.45
2019-05-10T10:56:43.368Z,63.76
2019-05-10T10:57:42.382Z,63.66
2019-05-10T10:58:42.346Z,63.76
2019-05-10T10:59:42.341Z,64.27
2019-05-10T11:00:42.326Z,64.37
2019-05-10T11:01:49.858Z,64.37
2019-05-10T11:02:46.813Z,64.98
2019-05-10T11:03:43.289Z,64.88
2019-05-10T11:04:46.718Z,63.96
2019-05-10T11:05:43.288Z,62.75
2019-05-10T11:06:42.280Z,62.04
2019-05-10T11:07:47.263Z,63.35
2019-05-10T11:08:43.248Z,62.24
2019-05-10T11:09:42.224Z,61.74
2019-05-10T11:10:43.042Z,63.06
2019-05-10T11:11:44.779Z,62.04
2019-05-10T11:12:42.189Z,62.37
2019-05-10T11:13:45.750Z,62.57
2019-05-10T11:14:45.377Z,63.06
2019-05-10T11:15:42.222Z,62.65
2019-05-10T11:16:46.609Z,62.65
2019-05-10T11:17:43.131Z,62.34
2019-05-10T11:18:42.124Z,62.75
2019-05-10T11:19:42.109Z,61.83
2019-05-10T11:20:49.484Z,63.32
2019-05-10T11:21:43.118Z,62.72
2019-05-10T11:22:51.682Z,62.41
2019-05-10T11:23:43.067Z,63.23
2019-05-10T11:24:42.055Z,64.11
2019-05-10T11:25:50.284Z,62.69
2019-05-10T11:26:44.905Z,61.47
2019-05-10T11:27:42.021Z,61.68
2019-05-10T11:28:44.134Z,61.98
2019-05-10T11:29:41.995Z,60.16
2019-05-10T11:30:41.987Z,60.36
2019-05-10T11:31:41.974Z,60.77
2019-05-10T11:32:42.107Z,60.26
2019-05-10T11:33:47.263Z,61.00
2019-05-10T11:34:42.941Z,60.62
2019-05-10T11:35:41.951Z,62.54
2019-05-10T11:36:46.029Z,61.87
2019-05-10T11:37:45.572Z,62.54
2019-05-10T11:38:42.200Z,63.26
2019-05-10T11:39:46.683Z,62.37
2019-05-10T11:40:42.892Z,63.08
2019-05-10T11:41:41.861Z,63.92
2019-05-10T11:42:43.679Z,64.84
2019-05-10T11:43:42.859Z,64.43
2019-05-10T11:44:50.272Z,64.03
2019-05-10T11:45:44.193Z,64.76
2019-05-10T11:46:41.804Z,65.17
2019-05-10T11:47:41.815Z,64.67
2019-05-10T11:48:42.322Z,65.17
2019-05-10T11:49:41.772Z,64.76
2019-05-10T11:50:41.758Z,65.41
2019-05-10T11:51:41.748Z,64.39
2019-05-10T11:52:41.767Z,65.71
2019-05-10T11:53:41.743Z,66.96
2019-05-10T11:54:41.936Z,68.69
2019-05-10T11:55:43.576Z,68.49
2019-05-10T11:56:41.691Z,71.47
2019-05-10T11:57:44.090Z,72.21
2019-05-10T11:58:49.068Z,74.38
2019-05-10T11:59:42.655Z,76.01
2019-05-10T12:00:41.646Z,77.47
2019-05-10T12:01:41.983Z,78.63
2019-05-10T12:03:00.917Z,79.75
2019-05-10T12:03:42.652Z,80.36
2019-05-10T12:04:43.385Z,80.46
2019-05-10T12:05:42.562Z,80.66
2019-05-10T12:07:45.825Z,81.27
2019-05-10T12:08:42.077Z,81.85
2019-05-10T12:09:42.514Z,82.76
2019-05-10T12:10:52.274Z,83.58
2019-05-10T12:11:51.788Z,83.13
2019-05-10T12:13:00.454Z,82.01
2019-05-10T12:13:42.522Z,81.91
2019-05-10T12:14:43.648Z,82.42
2019-05-10T12:15:43.221Z,81.91
2019-05-10T12:16:42.151Z,81.81
2019-05-10T12:19:47.689Z,82.12
2019-05-10T12:20:55.711Z,80.38
2019-05-10T12:21:42.410Z,80.29
2019-05-10T12:22:47.214Z,80.22
2019-05-10T12:23:50.345Z,80.63
2019-05-10T12:24:57.273Z,78.15
2019-05-10T12:25:58.966Z,78.76
2019-05-10T12:25:59.930Z,81.07
2019-05-10T12:26:06.531Z,80.69
2019-05-10T12:26:27.771Z,80.69
2019-05-10T12:27:48.772Z,80.55
2019-05-10T12:28:42.334Z,78.82
2019-05-10T12:29:41.348Z,79.13
2019-05-10T12:30:41.337Z,78.92
2019-05-10T12:31:41.562Z,78.72
2019-05-10T12:32:55.093Z,79.09
2019-05-10T12:33:45.294Z,79.19
2019-05-10T12:34:46.075Z,78.68
2019-05-10T12:35:47.150Z,78.41
2019-05-10T12:36:43.587Z,78.01
2019-05-10T12:37:46.302Z,77.84
2019-05-10T12:38:42.217Z,76.82
2019-05-10T12:39:41.207Z,75.60
2019-05-10T12:40:42.465Z,77.47
2019-05-10T12:41:47.742Z,77.67
2019-05-10T12:42:42.173Z,77.91
2019-05-10T12:43:43.687Z,78.02
2019-05-10T12:44:43.973Z,78.73
2019-05-10T12:45:42.139Z,79.68
2019-05-10T12:46:42.238Z,80.80
2019-05-10T12:47:41.559Z,82.33
2019-05-10T12:48:42.607Z,81.86
2019-05-10T12:49:41.126Z,82.17
2019-05-10T12:50:43.965Z,82.27
2019-05-10T12:51:43.151Z,83.39
2019-05-10T12:52:43.271Z,82.71
2019-05-10T12:53:44.619Z,83.84